Billings, New York
Current Conditions -  °F | °C
As of 1:53 PM on Friday 31 Oct 2014 (Local Time) from KPOU Reporting Station
Broken Clouds Broken Clouds  
Wind Chill: 11°   Ceiling: 5000
Heat Index: 11°   Visibility: 10mi
Dew Point:   Wind: 6mph
Humidity: 59%   Direction: 330°NNW
Pressure: 29.95"   Gusts: NA
Location:  41.67°N, 73.76°W
Report Text: KPOU 311753Z 33005KT 10SM BKN050 11/03 A2995 RMK AO2 SLP140 T01060028 10106 20000 58019
Loading
Personal Weather Stations






























Interactive Weather Map
Tropical Storm Tracking
New forecast layout! Learn more

10-Day Weather Forecast

Advertisements
Track Severe Weather on mobile